SBOSBO NRT / RJAA
Speedbird OnlineSpeedbird Online NRT / RJAA

Narita International Airport
19:17 23.2°C

Location Tokyo, Japan
Latitude: 35.7647018433
Longitude: 140.386001587
Local Time 19:17 on 17 Jun 2024
UTC +9 hours (Asia/Tokyo)
Currency £1 equals JPY 199.66
METAR RJAA 171000Z 11005KT 070V190 9999 FEW025 BKN150 23/22 Q1008 NOSIG
TAF TAF RJAA 170509Z 1706/1812 16006KT 9999 FEW020 BECMG 1718/1721 04006KT 2500 SHRA BR FEW002 BKN005 BECMG 1803/1806 18014KT TEMPO 1806/1809 20018G30KT BECMG 1809/1812 34008KT
Weather As Of 17 Jun 2024 19:17
Description Heavy intensity rain
Wind 9 km/h from East (110°)
Cloud Cover 75%
Precipitation Rain: none, Snow: none
Sunrise 04:22
Sunset 18:56
Lounges Japan Airlines Sakura Lounge (International), Terminal 2
Cathay Pacific Lounge, Terminal 2
Japan Airlines Sakura Lounge (Domestic) , Terminal 2
Japan Airlines Sakura Lounge (International) , Terminal 2
Japan Airlines First Class Lounge , Terminal 2
Web Wikipedia
Codes IATA: NRT
ICAO: RJAA
Altitude 43 Meter / 141 Feet
Distance 9,568 KM / 5,945 Miles
from London.
Runways
RunwayLength (m)Surface
16L2500Asphalt
16R4000Asphalt
34L4000Asphalt
34R2500Asphalt
Radio
TypeDescriptionFrequency
APPTOKYO APP124.4
ATISATIS128.25
CLDCLNC DEL121.9
CLRCLNC DEL121.65
DEPTOKYO DEP124.2
GND121.85
GNDGND121.95
RDRTOKYO RDR120.2
RMPRAMP121.6
RMPRAMP121.75
TCATOKYO TCA119.45
TWRTWR118.2
TWR118.35
Live ATC



Support Speedbird Online

© 2017-2024 Speedbird Online